Time;durP1;ratioP1;P1;durP2;ratioP2;P2;SDS_P1;SDS_P2;PMS_P1;PMS_P2;Temp;Humidity;BMP_temperature;BMP_pressure;BME280_temperature;BME280_humidity;BME280_pressure;Samples;Min_cycle;Max_cycle;Signal;HPM_P1;HPM_P2
2022/07/14 00:02:18;;;;;;;1.87;1.77;;;21.00;99.90;;;;;;5091950;28;20201;-80
2022/07/14 00:04:44;;;;;;;1.80;1.70;;;21.00;99.90;;;;;;5091550;28;20275;-80
2022/07/14 00:07:11;;;;;;;1.70;1.60;;;21.00;99.90;;;;;;5092752;28;20689;-80
2022/07/14 00:09:38;;;;;;;1.70;1.60;;;21.10;99.90;;;;;;5091750;28;20564;-80
2022/07/14 00:12:05;;;;;;;1.60;1.50;;;21.10;99.90;;;;;;5092455;28;20198;-80
2022/07/14 00:14:32;;;;;;;1.43;1.40;;;21.10;99.90;;;;;;5091244;28;20228;-80
2022/07/14 00:16:59;;;;;;;1.73;1.63;;;21.10;99.90;;;;;;5091340;28;20262;-80
2022/07/14 00:19:27;;;;;;;1.80;1.70;;;21.10;99.90;;;;;;5092891;28;20235;-80
2022/07/14 00:21:54;;;;;;;1.80;1.60;;;21.00;99.90;;;;;;5091155;28;20205;-81
2022/07/14 00:24:21;;;;;;;2.20;2.00;;;21.00;99.90;;;;;;5091540;28;20336;-79
2022/07/14 00:26:48;;;;;;;3.07;2.87;;;21.00;99.90;;;;;;5091400;28;20258;-79
2022/07/14 00:29:15;;;;;;;2.10;1.90;;;20.90;99.90;;;;;;5092751;28;20204;-80
2022/07/14 00:31:42;;;;;;;2.10;1.80;;;20.90;99.90;;;;;;5091484;28;20673;-80
2022/07/14 00:34:09;;;;;;;1.83;1.73;;;20.80;99.90;;;;;;5089689;28;20303;-80
2022/07/14 00:36:37;;;;;;;4.20;4.00;;;20.80;99.90;;;;;;5091327;28;20197;-80
2022/07/14 00:39:04;;;;;;;2.27;2.07;;;20.70;99.90;;;;;;5091240;28;20200;-80
2022/07/14 00:41:31;;;;;;;2.20;2.00;;;20.70;99.90;;;;;;5091007;28;20242;-80
2022/07/14 00:43:58;;;;;;;2.60;1.90;;;20.60;99.90;;;;;;5090847;28;20237;-80
2022/07/14 00:46:26;;;;;;;2.53;2.33;;;20.60;99.90;;;;;;5091093;28;20200;-79
2022/07/14 00:48:52;;;;;;;2.77;1.93;;;20.60;99.90;;;;;;5092335;28;20205;-80
2022/07/14 00:51:19;;;;;;;2.20;2.00;;;20.60;99.90;;;;;;5090863;28;20735;-80
2022/07/14 00:53:52;;;;;;;1.80;1.70;;;20.70;99.90;;;;;;5090464;28;20232;-79
2022/07/14 00:56:19;;;;;;;1.83;1.67;;;20.60;99.90;;;;;;5092082;28;20199;-80
2022/07/14 00:58:46;;;;;;;1.80;1.70;;;20.60;99.90;;;;;;5091179;28;20208;-80
2022/07/14 01:01:13;;;;;;;2.47;2.33;;;20.60;99.90;;;;;;5091137;28;20203;-79
2022/07/14 01:03:39;;;;;;;4.30;4.10;;;20.60;99.90;;;;;;5090696;28;20216;-79
2022/07/14 01:06:06;;;;;;;2.43;2.33;;;20.60;99.90;;;;;;5090928;28;20680;-79
2022/07/14 01:08:33;;;;;;;2.97;2.77;;;20.60;99.90;;;;;;5090908;28;20254;-79
2022/07/14 01:11:01;;;;;;;3.50;3.40;;;20.60;99.90;;;;;;5090857;28;20700;-79
2022/07/14 01:13:28;;;;;;;3.93;3.73;;;20.50;99.90;;;;;;5091821;28;20230;-79
2022/07/14 01:15:55;;;;;;;3.67;3.47;;;20.50;99.90;;;;;;5092065;28;20227;-80
2022/07/14 01:18:22;;;;;;;3.23;3.13;;;20.50;99.90;;;;;;5090804;28;20254;-79
2022/07/14 01:20:50;;;;;;;3.40;3.20;;;20.50;99.90;;;;;;5090527;28;20244;-80
2022/07/14 01:23:19;;;;;;;3.33;3.17;;;20.40;99.90;;;;;;5090271;28;20577;-80
2022/07/14 01:25:46;;;;;;;2.00;1.80;;;20.40;99.90;;;;;;5090458;28;20630;-80
2022/07/14 01:28:13;;;;;;;1.70;1.60;;;20.30;99.90;;;;;;5090775;28;20207;-79
2022/07/14 01:30:40;;;;;;;1.87;1.77;;;20.30;99.90;;;;;;5092042;28;20235;-79
2022/07/14 01:33:07;;;;;;;1.53;1.53;;;20.20;99.90;;;;;;5090439;28;20784;-77
2022/07/14 01:35:35;;;;;;;1.90;1.80;;;20.10;99.90;;;;;;5091543;28;20213;-80
2022/07/14 01:38:02;;;;;;;1.87;1.77;;;20.10;99.90;;;;;;5094623;28;20206;-79
2022/07/14 01:40:30;;;;;;;3.40;3.20;;;20.00;99.90;;;;;;5094800;28;20212;-80
2022/07/14 01:42:58;;;;;;;1.80;1.70;;;19.90;99.90;;;;;;5094446;28;20661;-79
2022/07/14 01:45:25;;;;;;;4.90;4.60;;;19.80;99.90;;;;;;5094277;28;20229;-80
2022/07/14 01:47:52;;;;;;;1.80;1.70;;;19.70;99.90;;;;;;5094345;28;20252;-79
2022/07/14 01:50:19;;;;;;;2.17;2.07;;;19.60;99.90;;;;;;5094283;28;20206;-79
2022/07/14 01:52:47;;;;;;;1.97;1.80;;;19.60;99.90;;;;;;5094150;28;20198;-79
2022/07/14 01:55:14;;;;;;;1.70;1.60;;;19.50;99.90;;;;;;5094198;28;20670;-79
2022/07/14 01:57:45;;;;;;;4.07;3.63;;;19.50;99.90;;;;;;5094460;28;20229;-80
2022/07/14 02:00:13;;;;;;;1.80;1.70;;;19.40;99.90;;;;;;5094049;28;20218;-80
2022/07/14 02:02:51;;;;;;;1.97;1.73;;;19.40;99.90;;;;;;5093849;28;20202;-79
2022/07/14 02:05:17;;;;;;;1.80;1.70;;;19.40;99.90;;;;;;5094115;28;20193;-79
2022/07/14 02:07:44;;;;;;;1.90;1.80;;;19.30;99.90;;;;;;5095350;28;20256;-80
2022/07/14 02:13:06;;;;;;;1.97;1.80;;;19.20;99.90;;;;;;5052281;28;20251;-79
2022/07/14 02:15:34;;;;;;;1.97;1.87;;;19.20;99.90;;;;;;5094009;28;20247;-80
2022/07/14 02:18:01;;;;;;;3.40;3.20;;;19.10;99.90;;;;;;5094068;28;20206;-79
2022/07/14 02:20:28;;;;;;;2.13;2.00;;;19.00;99.90;;;;;;5093820;28;20202;-79
2022/07/14 02:22:55;;;;;;;2.17;2.00;;;18.90;99.90;;;;;;5093909;28;20225;-79
2022/07/14 02:25:24;;;;;;;2.20;2.10;;;18.90;99.90;;;;;;5093711;28;20194;-79
2022/07/14 02:27:51;;;;;;;2.00;1.90;;;18.80;99.90;;;;;;5093630;28;20604;-79
2022/07/14 02:30:22;;;;;;;2.40;2.20;;;18.70;99.90;;;;;;5093683;28;20191;-79
2022/07/14 02:32:49;;;;;;;1.97;1.87;;;18.60;99.90;;;;;;5093833;28;20194;-79
2022/07/14 02:35:16;;;;;;;1.83;1.70;;;18.60;99.90;;;;;;5095006;28;20206;-79
2022/07/14 02:37:42;;;;;;;1.90;1.70;;;18.50;99.90;;;;;;5095156;28;20198;-79
2022/07/14 02:40:11;;;;;;;2.00;1.90;;;18.50;99.90;;;;;;5085141;28;20639;-79
2022/07/14 02:42:38;;;;;;;2.73;2.53;;;18.30;99.90;;;;;;5093782;28;20197;-80
2022/07/14 02:45:06;;;;;;;1.90;1.80;;;18.30;99.90;;;;;;5092959;28;20218;-80
2022/07/14 02:47:34;;;;;;;4.37;3.97;;;18.20;99.90;;;;;;5092543;28;20198;-80
2022/07/14 02:50:01;;;;;;;5.30;5.00;;;18.20;99.90;;;;;;5093321;28;20190;-79
2022/07/14 02:52:30;;;;;;;5.50;5.10;;;18.20;99.90;;;;;;5093831;28;20240;-77
2022/07/14 02:54:57;;;;;;;2.40;2.20;;;18.10;99.90;;;;;;5098965;28;20231;-81
2022/07/14 02:57:29;;;;;;;4.07;3.87;;;18.10;99.90;;;;;;5094047;28;20286;-81
2022/07/14 02:59:57;;;;;;;5.50;5.20;;;18.10;99.90;;;;;;5096522;28;20193;-79
2022/07/14 03:02:25;;;;;;;5.33;5.03;;;18.10;99.90;;;;;;5089668;28;20258;-81
2022/07/14 03:04:53;;;;;;;5.87;5.47;;;18.10;99.90;;;;;;5095087;28;20692;-81
2022/07/14 03:07:20;;;;;;;5.70;5.30;;;18.10;99.90;;;;;;5095781;28;20776;-81
2022/07/14 03:09:48;;;;;;;1.70;1.60;;;18.00;99.90;;;;;;5095849;28;20300;-81
2022/07/14 03:12:15;;;;;;;3.00;2.80;;;18.00;99.90;;;;;;5090668;28;20201;-81
2022/07/14 03:14:43;;;;;;;2.97;2.77;;;17.90;99.90;;;;;;5097123;28;20700;-80
2022/07/14 03:17:11;;;;;;;2.13;2.03;;;17.80;99.90;;;;;;5097922;28;20621;-80
2022/07/14 03:19:38;;;;;;;4.23;4.03;;;17.80;99.90;;;;;;5088504;28;20202;-80
2022/07/14 03:22:06;;;;;;;4.57;4.37;;;17.80;99.90;;;;;;5087391;28;20205;-79
2022/07/14 03:24:35;;;;;;;1.70;1.60;;;17.70;99.90;;;;;;5097254;28;20211;-79
2022/07/14 03:27:03;;;;;;;2.30;2.10;;;17.70;99.90;;;;;;5094882;28;20573;-79
2022/07/14 03:29:32;;;;;;;2.30;1.87;;;17.70;99.90;;;;;;5096262;28;20737;-78
2022/07/14 03:31:58;;;;;;;1.93;1.83;;;17.70;99.90;;;;;;5095199;28;20339;-78
2022/07/14 03:34:29;;;;;;;2.10;2.00;;;17.60;99.90;;;;;;5094981;28;20307;-78
2022/07/14 03:36:57;;;;;;;1.83;1.73;;;17.60;99.90;;;;;;5094515;28;20253;-79
2022/07/14 03:39:31;;;;;;;1.73;1.63;;;17.70;99.90;;;;;;5097773;28;20602;-79
2022/07/14 03:41:58;;;;;;;3.03;2.83;;;17.70;99.90;;;;;;5097648;28;20206;-78
2022/07/14 03:44:26;;;;;;;3.77;3.57;;;17.80;99.90;;;;;;5097354;28;20315;-79
2022/07/14 03:46:53;;;;;;;4.70;4.40;;;17.80;99.90;;;;;;5098846;28;20197;-79
2022/07/14 03:49:22;;;;;;;4.20;4.00;;;17.80;99.90;;;;;;5099090;28;20270;-79
2022/07/14 03:51:50;;;;;;;5.33;5.03;;;17.80;99.90;;;;;;5098052;28;20197;-79
2022/07/14 03:54:22;;;;;;;4.10;3.87;;;17.80;99.90;;;;;;5097682;28;20216;-79
2022/07/14 03:56:50;;;;;;;2.37;2.17;;;17.80;99.90;;;;;;5098863;28;20677;-79
2022/07/14 03:59:20;;;;;;;6.73;6.23;;;17.80;99.90;;;;;;5098136;28;20291;-79
2022/07/14 04:01:47;;;;;;;2.63;2.40;;;17.80;99.90;;;;;;5098490;28;20200;-79
2022/07/14 04:04:15;;;;;;;3.33;2.60;;;17.80;99.90;;;;;;5098346;28;20246;-79
2022/07/14 04:06:43;;;;;;;3.20;2.87;;;17.80;99.90;;;;;;5098497;28;20204;-80
2022/07/14 04:09:10;;;;;;;4.93;3.53;;;17.80;99.90;;;;;;5090576;28;20211;-79
2022/07/14 04:11:44;;;;;;;4.90;3.67;;;17.90;99.90;;;;;;5098905;28;20200;-79
2022/07/14 04:14:13;;;;;;;4.07;3.40;;;17.80;99.90;;;;;;5098202;28;20265;-80
2022/07/14 04:16:41;;;;;;;4.67;3.63;;;17.90;99.90;;;;;;5097566;28;20205;-79
2022/07/14 04:19:08;;;;;;;6.80;4.70;;;17.90;99.90;;;;;;5098043;28;20204;-80
2022/07/14 04:21:36;;;;;;;7.03;4.30;;;18.00;99.90;;;;;;5098091;28;20275;-81
2022/07/14 04:24:04;;;;;;;5.17;3.80;;;18.10;99.90;;;;;;5097649;28;20212;-79
2022/07/14 04:26:32;;;;;;;4.77;3.73;;;18.20;99.90;;;;;;5098773;28;20287;-79
2022/07/14 04:28:59;;;;;;;5.93;3.70;;;18.40;99.90;;;;;;5099388;28;20555;-79
2022/07/14 04:31:29;;;;;;;5.27;3.73;;;18.50;99.90;;;;;;5098177;28;20201;-79
2022/07/14 04:33:56;;;;;;;7.00;4.97;;;18.70;99.90;;;;;;5097396;28;20328;-79
2022/07/14 04:36:23;;;;;;;7.80;4.83;;;18.90;99.90;;;;;;5099774;28;20254;-79
2022/07/14 04:38:51;;;;;;;9.43;8.27;;;19.10;99.90;;;;;;5099026;28;20545;-79
2022/07/14 04:41:19;;;;;;;8.03;6.20;;;19.30;99.90;;;;;;5098349;28;20582;-79
2022/07/14 04:43:46;;;;;;;7.03;4.63;;;19.50;99.90;;;;;;5098205;28;20587;-79
2022/07/14 04:46:13;;;;;;;6.70;4.33;;;19.70;99.90;;;;;;5098338;28;20206;-79
2022/07/14 04:54:23;;;;;;;6.07;5.57;;;20.50;99.90;;;;;;5091854;28;20737;-80
2022/07/14 04:57:08;;;;;;;2.80;2.60;;;20.60;99.90;;;;;;5099784;28;20205;-80
2022/07/14 04:59:39;;;;;;;5.77;5.37;;;21.00;99.90;;;;;;5098182;28;20210;-79
2022/07/14 05:02:08;;;;;;;6.40;5.90;;;21.40;99.90;;;;;;5099724;28;20183;-79
2022/07/14 05:04:36;;;;;;;4.57;3.97;;;21.80;99.90;;;;;;5097628;28;20225;-81
2022/07/14 05:07:06;;;;;;;6.43;6.03;;;22.10;99.90;;;;;;5097903;28;20289;-79
2022/07/14 05:09:34;;;;;;;3.50;3.20;;;22.20;99.90;;;;;;5098535;28;20193;-79
2022/07/14 05:12:04;;;;;;;2.60;2.40;;;22.00;99.90;;;;;;5098577;28;20209;-80
2022/07/14 05:14:34;;;;;;;2.87;2.70;;;21.90;99.90;;;;;;5098305;28;20217;-80
2022/07/14 05:17:02;;;;;;;2.40;2.20;;;21.80;99.90;;;;;;5098291;28;20201;-80
2022/07/14 05:19:30;;;;;;;3.60;2.83;;;21.70;99.90;;;;;;5089590;28;20198;-79
2022/07/14 05:21:59;;;;;;;2.30;2.20;;;21.50;99.90;;;;;;5099922;28;20194;-80
2022/07/14 05:24:26;;;;;;;2.93;2.70;;;21.40;99.90;;;;;;5098310;28;20259;-80
2022/07/14 05:26:53;;;;;;;2.50;2.30;;;21.40;99.90;;;;;;5098637;28;20202;-80
2022/07/14 05:29:20;;;;;;;3.67;3.37;;;21.50;99.90;;;;;;5098292;28;20208;-80
2022/07/14 05:31:47;;;;;;;2.60;2.40;;;21.50;99.90;;;;;;5098068;28;20708;-79
2022/07/14 05:34:14;;;;;;;2.53;2.30;;;21.60;99.90;;;;;;5097337;28;20242;-80
2022/07/14 05:36:41;;;;;;;2.60;2.40;;;21.70;99.90;;;;;;5098804;28;20247;-80
2022/07/14 05:39:11;;;;;;;2.80;2.70;;;21.80;99.90;;;;;;5089969;28;20230;-80
2022/07/14 05:41:38;;;;;;;3.03;1.93;;;21.90;99.90;;;;;;5098917;28;20289;-79
2022/07/14 05:44:05;;;;;;;3.60;3.30;;;22.00;99.90;;;;;;5098089;28;20214;-80
2022/07/14 05:46:32;;;;;;;5.80;5.50;;;22.30;99.90;;;;;;5099673;28;20280;-79
2022/07/14 05:48:59;;;;;;;5.87;5.47;;;22.70;99.90;;;;;;5098585;28;20240;-80
2022/07/14 05:51:27;;;;;;;5.43;5.10;;;23.10;99.90;;;;;;5098904;28;20327;-80
2022/07/14 05:53:55;;;;;;;5.50;5.20;;;23.80;99.90;;;;;;5098019;28;20217;-80
2022/07/14 05:56:26;;;;;;;4.73;4.43;;;24.60;99.90;;;;;;5098778;28;20743;-80
2022/07/14 05:58:53;;;;;;;2.23;2.00;;;25.30;99.90;;;;;;5098880;28;20198;-80
2022/07/14 06:01:20;;;;;;;6.03;5.63;;;25.80;99.90;;;;;;5099356;28;20197;-80
2022/07/14 06:03:53;;;;;;;4.10;3.80;;;26.50;99.90;;;;;;5098033;28;20221;-80
2022/07/14 06:06:21;;;;;;;5.80;5.50;;;26.70;99.90;;;;;;5099986;28;20205;-80
2022/07/14 06:08:48;;;;;;;4.20;4.00;;;27.20;98.60;;;;;;5098670;28;20232;-80
2022/07/14 06:11:15;;;;;;;6.10;5.60;;;27.30;98.10;;;;;;5099620;28;20216;-81
2022/07/14 06:13:45;;;;;;;5.00;4.70;;;27.70;97.70;;;;;;5099535;28;20224;-80
2022/07/14 06:16:14;;;;;;;5.80;4.17;;;28.00;97.40;;;;;;5108865;28;20209;-81
2022/07/14 06:18:42;;;;;;;3.23;2.93;;;28.30;96.40;;;;;;5099428;28;20281;-81
2022/07/14 06:21:09;;;;;;;5.37;4.87;;;28.40;96.50;;;;;;5099428;28;20579;-80
2022/07/14 06:23:36;;;;;;;6.20;5.80;;;28.30;96.10;;;;;;5102382;28;20225;-81
2022/07/14 06:26:08;;;;;;;4.90;4.60;;;28.10;96.40;;;;;;5103829;28;20215;-81
2022/07/14 06:28:36;;;;;;;6.03;5.53;;;28.00;96.40;;;;;;5102341;28;20197;-81
2022/07/14 06:31:04;;;;;;;6.23;5.83;;;28.10;96.20;;;;;;5104519;28;20198;-81
2022/07/14 06:33:31;;;;;;;5.50;5.10;;;28.60;95.60;;;;;;5103567;28;20218;-81
2022/07/14 06:36:08;;;;;;;6.60;6.20;;;28.90;95.10;;;;;;5103700;28;20235;-81
2022/07/14 06:38:37;;;;;;;6.60;6.10;;;29.40;94.50;;;;;;5100665;28;20254;-81
2022/07/14 06:41:03;;;;;;;5.10;4.80;;;29.70;93.90;;;;;;5102764;28;20293;-81
2022/07/14 06:43:35;;;;;;;4.70;4.30;;;29.80;93.70;;;;;;5103074;28;20217;-81
2022/07/14 06:46:08;;;;;;;4.80;4.50;;;29.50;93.40;;;;;;5103680;28;20280;-81
2022/07/14 06:48:36;;;;;;;5.83;4.80;;;29.10;93.10;;;;;;5103001;28;20201;-82
2022/07/14 06:51:04;;;;;;;4.77;4.47;;;29.10;93.70;;;;;;5105566;28;20189;-81
2022/07/14 06:53:31;;;;;;;4.77;4.47;;;29.10;93.30;;;;;;5104193;28;20235;-79
2022/07/14 06:55:57;;;;;;;4.80;4.40;;;28.90;93.60;;;;;;5104683;28;20214;-81
2022/07/14 06:58:24;;;;;;;4.70;4.20;;;28.70;93.80;;;;;;5104000;28;20280;-83
2022/07/14 07:00:51;;;;;;;4.50;4.20;;;29.10;93.30;;;;;;5102892;28;20194;-81
2022/07/14 07:03:19;;;;;;;4.40;4.20;;;29.40;93.70;;;;;;5102839;28;20282;-82
2022/07/14 07:08:30;;;;;;;5.10;4.70;;;29.80;93.20;;;;;;5105314;28;20197;-81
2022/07/14 07:10:57;;;;;;;5.23;4.30;;;30.10;92.80;;;;;;5102968;28;20198;-81
2022/07/14 07:13:24;;;;;;;4.30;4.00;;;30.20;91.10;;;;;;5102058;28;20253;-80
2022/07/14 07:15:52;;;;;;;4.53;4.10;;;30.20;90.40;;;;;;5104112;28;20762;-81
2022/07/14 07:18:20;;;;;;;4.43;4.00;;;30.30;89.90;;;;;;5103770;28;20198;-81
2022/07/14 07:20:47;;;;;;;5.33;5.00;;;30.30;91.10;;;;;;5102757;28;20198;-81
2022/07/14 07:23:14;;;;;;;4.70;4.40;;;30.10;91.40;;;;;;5104697;28;20217;-80
2022/07/14 07:25:50;;;;;;;5.63;5.30;;;30.00;91.30;;;;;;5105417;28;20604;-81
2022/07/14 07:28:16;;;;;;;5.33;5.03;;;30.20;91.80;;;;;;5098910;28;20685;-81
2022/07/14 07:30:43;;;;;;;5.57;5.27;;;30.20;91.90;;;;;;5104175;28;20193;-82
2022/07/14 07:33:10;;;;;;;5.90;5.30;;;30.20;91.90;;;;;;5093866;28;20228;-80
2022/07/14 07:35:39;;;;;;;6.07;5.57;;;30.40;92.10;;;;;;5102804;28;20217;-81
2022/07/14 07:38:06;;;;;;;5.80;5.40;;;30.50;91.70;;;;;;5104326;28;20190;-81
2022/07/14 07:40:33;;;;;;;5.60;5.20;;;31.00;91.50;;;;;;5104153;28;20209;-82
2022/07/14 07:43:00;;;;;;;5.43;5.13;;;31.20;91.60;;;;;;5101982;28;20206;-81
2022/07/14 07:45:26;;;;;;;5.30;5.00;;;31.60;90.90;;;;;;5101933;28;20217;-80
2022/07/14 07:47:53;;;;;;;5.10;4.70;;;32.10;90.80;;;;;;5102732;28;20190;-81
2022/07/14 07:50:20;;;;;;;5.93;4.40;;;32.30;89.80;;;;;;5102637;28;20220;-81
2022/07/14 07:52:48;;;;;;;6.00;4.73;;;32.30;88.60;;;;;;5104147;28;20201;-83
2022/07/14 07:55:15;;;;;;;5.10;4.80;;;32.20;89.90;;;;;;5104204;28;20296;-81
2022/07/14 07:57:43;;;;;;;4.40;4.13;;;32.30;85.90;;;;;;5103796;28;20552;-81
2022/07/14 08:00:11;;;;;;;2.20;2.10;;;32.00;89.60;;;;;;5096643;28;20201;-81
2022/07/14 08:02:49;;;;;;;2.33;2.13;;;31.70;88.70;;;;;;5100521;28;20220;-82
2022/07/14 08:05:16;;;;;;;3.03;2.03;;;32.00;89.40;;;;;;5093274;28;20189;-81
2022/07/14 08:07:43;;;;;;;4.20;3.88;;;32.20;88.00;;;;;;5104474;28;20209;-82
2022/07/14 08:10:12;;;;;;;4.10;3.70;;;32.50;88.10;;;;;;5095974;28;20601;-82
2022/07/14 08:12:39;;;;;;;3.95;2.30;;;32.60;86.90;;;;;;5102394;28;20208;-82
2022/07/14 08:15:06;;;;;;;4.90;4.60;;;32.70;85.50;;;;;;5105599;28;20240;-82
2022/07/14 08:17:34;;;;;;;5.55;5.10;;;33.10;87.60;;;;;;5101156;28;20212;-82
2022/07/14 08:20:01;;;;;;;3.38;3.17;;;33.40;85.00;;;;;;5102226;28;20251;-82
2022/07/14 08:22:29;;;;;;;4.63;4.32;;;33.10;85.20;;;;;;5100730;28;20255;-82
2022/07/14 08:24:57;;;;;;;5.70;5.30;;;33.00;85.90;;;;;;5100092;28;20286;-82
2022/07/14 08:27:26;;;;;;;5.53;5.22;;;33.00;86.40;;;;;;5101344;28;20625;-82
2022/07/14 08:29:53;;;;;;;6.10;5.53;;;33.20;85.50;;;;;;5101419;28;20205;-82
2022/07/14 08:32:35;;;;;;;5.72;5.32;;;33.40;84.90;;;;;;5101435;28;20227;-83
2022/07/14 08:35:02;;;;;;;5.85;5.35;;;33.50;85.80;;;;;;5101153;28;20225;-83
2022/07/14 08:37:29;;;;;;;6.43;4.75;;;33.60;83.90;;;;;;5100920;28;20224;-81
2022/07/14 08:39:56;;;;;;;5.65;5.20;;;33.70;81.00;;;;;;5101399;28;20228;-83
2022/07/14 08:42:23;;;;;;;5.57;5.10;;;33.90;81.90;;;;;;5101655;28;20767;-79
2022/07/14 08:44:53;;;;;;;4.10;3.80;;;34.20;80.60;;;;;;5100051;28;20229;-79
2022/07/14 08:47:20;;;;;;;5.50;5.20;;;34.50;82.80;;;;;;5102939;28;20201;-80
2022/07/14 08:49:47;;;;;;;5.85;5.40;;;34.70;79.70;;;;;;5101641;28;20227;-82
2022/07/14 08:52:16;;;;;;;6.72;5.10;;;34.70;79.90;;;;;;5101703;28;20206;-82
2022/07/14 08:54:44;;;;;;;4.70;4.30;;;34.70;80.50;;;;;;5103541;28;20214;-82
2022/07/14 08:57:10;;;;;;;4.53;4.07;;;35.10;76.80;;;;;;5098975;28;20217;-82
2022/07/14 08:59:38;;;;;;;5.10;4.80;;;35.20;77.70;;;;;;5098665;28;20254;-82
2022/07/14 09:02:06;;;;;;;3.40;3.10;;;35.20;78.00;;;;;;5103660;28;20236;-82
2022/07/14 09:04:33;;;;;;;5.20;4.80;;;35.50;75.50;;;;;;5099979;28;20210;-82
2022/07/14 09:06:59;;;;;;;3.92;3.47;;;35.60;74.70;;;;;;5098560;28;20258;-79
2022/07/14 09:09:29;;;;;;;3.17;2.97;;;35.80;78.10;;;;;;5102529;28;20602;-79
2022/07/14 09:12:00;;;;;;;5.25;4.35;;;36.00;75.20;;;;;;5103421;28;20614;-80
2022/07/14 09:15:44;;;;;;;5.32;5.00;;;35.80;74.70;;;;;;5100742;28;20218;-79
2022/07/14 09:17:18;;;;;;;3.40;3.20;;;36.10;76.00;;;;;;5095433;28;20222;-80
2022/07/14 09:20:07;;;;;;;5.40;5.10;;;36.30;74.10;;;;;;5102975;28;20220;-79
2022/07/14 09:22:36;;;;;;;2.40;2.20;;;36.40;73.90;;;;;;5101714;28;20209;-79
2022/07/14 09:25:06;;;;;;;2.70;2.15;;;36.40;72.00;;;;;;5102307;28;20625;-79
2022/07/14 09:27:33;;;;;;;2.50;2.30;;;36.60;72.10;;;;;;5100979;28;20186;-80
2022/07/14 09:30:00;;;;;;;2.60;2.40;;;36.60;73.60;;;;;;5096881;28;20207;-78
2022/07/14 09:35:22;;;;;;;3.60;3.40;;;36.40;71.80;;;;;;5098911;28;20588;-81
2022/07/14 09:37:50;;;;;;;4.97;4.68;;;36.50;72.20;;;;;;5108601;28;20198;-80
2022/07/14 09:40:26;;;;;;;2.95;2.80;;;36.50;72.20;;;;;;5103864;28;20254;-80
2022/07/14 09:42:57;;;;;;;3.50;3.30;;;36.50;70.50;;;;;;5106793;28;20194;-81
2022/07/14 09:45:27;;;;;;;4.50;4.03;;;36.50;71.20;;;;;;5104512;28;20205;-81
2022/07/14 09:48:03;;;;;;;4.40;4.10;;;36.80;71.10;;;;;;5108650;28;20195;-80
2022/07/14 09:50:44;;;;;;;4.80;3.67;;;36.70;71.00;;;;;;5105722;28;20224;-80
2022/07/14 09:53:14;;;;;;;6.22;5.20;;;37.00;70.90;;;;;;5101613;28;20246;-80
2022/07/14 09:55:44;;;;;;;5.40;4.03;;;37.00;71.00;;;;;;5107990;28;20193;-81
2022/07/14 09:58:14;;;;;;;2.58;2.38;;;37.10;70.90;;;;;;5085695;28;20198;-81
2022/07/14 10:00:43;;;;;;;4.55;2.30;;;37.10;69.00;;;;;;5094207;28;20234;-80
2022/07/14 10:03:10;;;;;;;2.45;2.25;;;37.00;69.60;;;;;;5082124;28;20210;-78
2022/07/14 10:05:39;;;;;;;3.00;2.13;;;36.60;69.40;;;;;;5095879;28;20262;-81
2022/07/14 10:08:07;;;;;;;2.33;2.17;;;36.50;69.90;;;;;;5100448;28;20689;-80
2022/07/14 10:10:35;;;;;;;2.00;1.90;;;36.50;68.90;;;;;;5107935;28;20284;-81
2022/07/14 10:13:04;;;;;;;3.15;1.85;;;36.80;67.90;;;;;;5102348;28;20241;-81
2022/07/14 10:15:31;;;;;;;2.10;2.00;;;36.80;67.40;;;;;;5088364;28;20198;-80
2022/07/14 10:18:01;;;;;;;2.15;1.95;;;36.80;62.10;;;;;;5086130;28;20227;-81
2022/07/14 10:20:29;;;;;;;1.90;1.80;;;37.00;60.60;;;;;;5094735;28;20693;-81
2022/07/14 10:22:58;;;;;;;2.03;1.90;;;36.90;62.40;;;;;;5098751;28;20270;-80
2022/07/14 10:25:26;;;;;;;2.30;2.10;;;37.00;62.80;;;;;;5099885;28;20205;-79
2022/07/14 10:27:53;;;;;;;2.17;1.98;;;37.10;63.40;;;;;;5103434;28;20198;-81
2022/07/14 10:30:31;;;;;;;6.03;2.20;;;37.00;62.50;;;;;;5105164;28;20205;-81
2022/07/14 10:33:05;;;;;;;2.42;2.22;;;37.00;63.20;;;;;;5100261;28;20194;-80
2022/07/14 10:35:48;;;;;;;4.63;4.20;;;36.80;62.50;;;;;;5107389;28;20229;-81
2022/07/14 10:38:32;;;;;;;4.93;4.47;;;36.60;61.70;;;;;;5087437;28;20208;-78
2022/07/14 10:41:08;;;;;;;4.80;4.50;;;36.40;61.50;;;;;;5091833;28;21512;-80
2022/07/14 10:43:57;;;;;;;5.13;4.72;;;36.10;61.10;;;;;;5086176;28;20230;-79
2022/07/14 10:46:43;;;;;;;4.68;4.38;;;35.80;61.50;;;;;;5075598;28;20620;-80
2022/07/14 10:49:11;;;;;;;4.70;4.50;;;35.70;60.80;;;;;;5074142;28;20328;-80
2022/07/14 10:51:47;;;;;;;4.93;4.38;;;35.60;62.00;;;;;;5072760;28;20741;-81
2022/07/14 10:54:17;;;;;;;4.97;4.57;;;35.60;60.60;;;;;;5073090;28;20210;-82
2022/07/14 10:56:45;;;;;;;4.90;4.50;;;35.50;59.90;;;;;;5071190;28;20199;-80
2022/07/14 10:59:32;;;;;;;4.78;4.50;;;35.30;61.60;;;;;;5073242;28;20228;-80
2022/07/14 11:02:33;;;;;;;4.32;4.10;;;35.20;60.50;;;;;;5078232;28;20248;-79
2022/07/14 11:05:11;;;;;;;4.75;4.40;;;35.30;61.30;;;;;;5077530;28;20223;-81
2022/07/14 11:07:45;;;;;;;5.10;4.20;;;35.30;61.20;;;;;;5084619;28;20230;-82
2022/07/14 11:11:09;;;;;;;4.18;3.90;;;35.10;59.80;;;;;;5083132;28;20248;-81
2022/07/14 11:14:06;;;;;;;3.80;3.50;;;35.00;59.70;;;;;;5084191;28;20219;-79
2022/07/14 11:16:56;;;;;;;4.40;4.00;;;34.90;60.30;;;;;;5083008;28;20223;-77
2022/07/14 11:19:24;;;;;;;4.10;3.90;;;34.80;60.40;;;;;;5080669;28;20253;-78
2022/07/14 11:22:16;;;;;;;4.13;3.83;;;34.80;59.80;;;;;;5088688;28;20224;-81
2022/07/14 11:24:48;;;;;;;2.97;1.90;;;34.90;59.80;;;;;;5088908;28;20211;-81
2022/07/14 11:27:37;;;;;;;4.40;4.20;;;34.90;58.60;;;;;;5083732;28;20202;-84
2022/07/14 11:30:29;;;;;;;4.60;4.40;;;35.00;59.30;;;;;;5093213;28;20233;-82
2022/07/14 11:33:05;;;;;;;4.72;4.43;;;35.00;57.40;;;;;;5091167;28;20198;-80
2022/07/14 11:38:33;;;;;;;4.78;4.47;;;35.00;58.40;;;;;;5077533;28;20214;-81
2022/07/14 11:41:00;;;;;;;4.18;3.63;;;34.90;59.30;;;;;;5087115;28;20270;-82
2022/07/14 11:43:45;;;;;;;4.47;4.13;;;34.80;58.10;;;;;;5089303;28;20229;-82
2022/07/14 11:46:14;;;;;;;4.38;4.07;;;34.80;58.60;;;;;;5082695;28;20241;-81
2022/07/14 11:48:44;;;;;;;2.47;2.28;;;34.80;58.80;;;;;;5088800;28;20232;-81
2022/07/14 11:51:14;;;;;;;3.58;3.38;;;34.70;57.20;;;;;;5087513;28;20190;-82
2022/07/14 11:53:42;;;;;;;2.05;1.95;;;34.70;59.30;;;;;;5091718;28;20275;-81
2022/07/14 11:56:10;;;;;;;2.63;2.10;;;34.60;59.10;;;;;;5086447;28;20201;-81
2022/07/14 11:58:39;;;;;;;2.08;1.98;;;34.60;59.00;;;;;;5084512;28;20207;-81
2022/07/14 12:01:07;;;;;;;1.92;1.83;;;34.70;58.70;;;;;;5085386;28;20650;-82
2022/07/14 12:03:36;;;;;;;1.95;1.85;;;34.70;59.00;;;;;;5081870;28;20604;-81
2022/07/14 12:06:03;;;;;;;1.80;1.70;;;34.70;58.70;;;;;;5080074;28;20202;-79
2022/07/14 12:08:32;;;;;;;1.98;1.88;;;34.70;59.30;;;;;;5084044;28;20202;-79
2022/07/14 12:11:05;;;;;;;2.45;2.25;;;34.70;58.80;;;;;;5078979;28;20193;-81
2022/07/14 12:13:32;;;;;;;2.22;1.70;;;34.50;58.10;;;;;;5086989;28;20224;-81
2022/07/14 12:16:03;;;;;;;2.47;1.95;;;34.50;58.50;;;;;;5082594;28;20214;-80
2022/07/14 12:18:32;;;;;;;2.30;1.90;;;34.30;58.20;;;;;;5088656;28;20208;-80
2022/07/14 12:21:00;;;;;;;1.73;1.63;;;34.00;59.10;;;;;;5086055;28;20566;-80
2022/07/14 12:23:28;;;;;;;1.95;1.85;;;34.00;59.20;;;;;;5088288;28;20210;-79
2022/07/14 12:26:00;;;;;;;2.15;2.05;;;34.10;59.60;;;;;;5085366;28;20281;-80
2022/07/14 12:28:27;;;;;;;2.20;2.00;;;33.90;59.20;;;;;;5079918;28;20575;-81
2022/07/14 12:30:56;;;;;;;2.63;2.10;;;33.80;58.90;;;;;;5079721;28;20210;-81
2022/07/14 12:33:25;;;;;;;2.08;1.83;;;33.80;59.70;;;;;;5076468;28;20247;-81
2022/07/14 12:35:55;;;;;;;2.13;1.92;;;33.90;58.70;;;;;;5086670;28;20636;-81
2022/07/14 12:38:25;;;;;;;4.37;2.00;;;34.00;59.60;;;;;;5086954;28;20617;-81
2022/07/14 12:40:54;;;;;;;2.28;2.08;;;34.10;60.20;;;;;;5077013;28;20230;-81
2022/07/14 12:43:21;;;;;;;1.92;1.83;;;34.10;59.20;;;;;;5091380;28;20222;-82
2022/07/14 12:46:00;;;;;;;2.28;1.83;;;34.20;59.50;;;;;;5078654;28;20202;-80
2022/07/14 12:48:28;;;;;;;2.03;1.92;;;34.20;59.30;;;;;;5081611;28;20578;-81
2022/07/14 12:50:54;;;;;;;2.03;1.92;;;34.20;58.90;;;;;;5084327;28;20191;-81
2022/07/14 12:53:23;;;;;;;4.97;1.90;;;34.10;58.50;;;;;;5083236;28;20787;-81
2022/07/14 12:55:58;;;;;;;3.33;1.92;;;34.20;59.80;;;;;;5083383;28;20215;-78
2022/07/14 12:58:28;;;;;;;3.05;2.00;;;34.30;58.80;;;;;;5079541;28;20262;-80
2022/07/14 13:00:55;;;;;;;4.30;2.00;;;34.40;58.60;;;;;;5086460;28;20189;-79
2022/07/14 13:03:22;;;;;;;2.08;1.90;;;34.40;58.90;;;;;;5081248;28;20218;-78
2022/07/14 13:05:54;;;;;;;1.95;1.80;;;34.10;59.90;;;;;;5078028;28;20232;-77
2022/07/14 13:08:34;;;;;;;2.20;2.00;;;34.10;60.30;;;;;;5078173;28;20204;-77
2022/07/14 13:11:02;;;;;;;2.20;1.90;;;34.30;59.40;;;;;;5077885;28;20667;-80
2022/07/14 13:13:30;;;;;;;2.13;1.92;;;34.30;61.30;;;;;;5092094;28;20221;-80
2022/07/14 13:16:21;;;;;;;1.90;1.80;;;34.20;59.90;;;;;;5090338;28;20224;-80
2022/07/14 13:19:09;;;;;;;4.10;2.20;;;34.30;61.20;;;;;;5080102;28;20198;-80